sensor_id;sensor_type;location;lat;lon;timestamp;P1;durP1;ratioP1;P2;durP2;ratioP2
55140;SDS011;41035;44.280;19.870;2022-12-07T00:01:46;801.17;;;120.80;;
55140;SDS011;41035;44.280;19.870;2022-12-07T00:04:13;671.05;;;115.00;;
55140;SDS011;41035;44.280;19.870;2022-12-07T00:06:41;827.38;;;133.25;;
55140;SDS011;41035;44.280;19.870;2022-12-07T00:09:09;922.42;;;166.95;;
55140;SDS011;41035;44.280;19.870;2022-12-07T00:11:49;710.95;;;139.65;;
55140;SDS011;41035;44.280;19.870;2022-12-07T00:14:28;705.13;;;132.27;;
55140;SDS011;41035;44.280;19.870;2022-12-07T00:16:58;360.02;;;93.35;;
55140;SDS011;41035;44.280;19.870;2022-12-07T00:19:24;708.13;;;101.22;;
55140;SDS011;41035;44.280;19.870;2022-12-07T00:21:52;442.75;;;87.63;;
55140;SDS011;41035;44.280;19.870;2022-12-07T00:24:34;447.40;;;90.20;;
55140;SDS011;41035;44.280;19.870;2022-12-07T00:32:43;702.75;;;104.95;;
55140;SDS011;41035;44.280;19.870;2022-12-07T00:35:09;520.25;;;97.07;;
55140;SDS011;41035;44.280;19.870;2022-12-07T00:37:35;601.00;;;110.72;;
55140;SDS011;41035;44.280;19.870;2022-12-07T00:40:01;529.08;;;104.90;;
55140;SDS011;41035;44.280;19.870;2022-12-07T00:42:33;768.28;;;110.93;;
55140;SDS011;41035;44.280;19.870;2022-12-07T00:45:21;500.98;;;76.35;;
55140;SDS011;41035;44.280;19.870;2022-12-07T00:48:54;806.00;;;89.00;;
55140;SDS011;41035;44.280;19.870;2022-12-07T00:59:34;368.33;;;70.85;;
55140;SDS011;41035;44.280;19.870;2022-12-07T01:02:08;684.22;;;80.43;;
55140;SDS011;41035;44.280;19.870;2022-12-07T01:04:34;286.67;;;71.53;;
55140;SDS011;41035;44.280;19.870;2022-12-07T01:15:40;735.22;;;93.10;;
55140;SDS011;41035;44.280;19.870;2022-12-07T01:18:10;614.67;;;81.85;;
55140;SDS011;41035;44.280;19.870;2022-12-07T01:26:09;825.97;;;93.03;;
55140;SDS011;41035;44.280;19.870;2022-12-07T01:28:38;648.92;;;86.40;;
55140;SDS011;41035;44.280;19.870;2022-12-07T01:31:05;565.60;;;88.70;;
55140;SDS011;41035;44.280;19.870;2022-12-07T01:33:35;481.58;;;86.88;;
55140;SDS011;41035;44.280;19.870;2022-12-07T01:36:05;543.38;;;79.45;;
55140;SDS011;41035;44.280;19.870;2022-12-07T01:38:34;447.70;;;81.13;;
55140;SDS011;41035;44.280;19.870;2022-12-07T01:41:01;1127.75;;;111.28;;
55140;SDS011;41035;44.280;19.870;2022-12-07T01:43:30;530.45;;;92.32;;
55140;SDS011;41035;44.280;19.870;2022-12-07T01:45:57;620.80;;;81.00;;
55140;SDS011;41035;44.280;19.870;2022-12-07T01:48:52;517.47;;;83.28;;
55140;SDS011;41035;44.280;19.870;2022-12-07T01:51:18;442.83;;;74.13;;
55140;SDS011;41035;44.280;19.870;2022-12-07T01:53:44;368.88;;;74.55;;
55140;SDS011;41035;44.280;19.870;2022-12-07T01:56:12;340.98;;;74.45;;
55140;SDS011;41035;44.280;19.870;2022-12-07T01:58:40;453.17;;;81.03;;
55140;SDS011;41035;44.280;19.870;2022-12-07T02:01:06;950.60;;;99.75;;
55140;SDS011;41035;44.280;19.870;2022-12-07T02:03:42;648.25;;;92.75;;
55140;SDS011;41035;44.280;19.870;2022-12-07T02:09:07;500.23;;;103.80;;
55140;SDS011;41035;44.280;19.870;2022-12-07T02:11:33;557.97;;;78.22;;
55140;SDS011;41035;44.280;19.870;2022-12-07T02:13:59;576.63;;;83.88;;
55140;SDS011;41035;44.280;19.870;2022-12-07T02:16:29;418.75;;;76.80;;
55140;SDS011;41035;44.280;19.870;2022-12-07T02:21:58;338.95;;;73.43;;
55140;SDS011;41035;44.280;19.870;2022-12-07T02:29:49;665.35;;;81.20;;
55140;SDS011;41035;44.280;19.870;2022-12-07T02:32:23;445.67;;;92.00;;
55140;SDS011;41035;44.280;19.870;2022-12-07T02:34:51;590.88;;;106.45;;
55140;SDS011;41035;44.280;19.870;2022-12-07T02:37:25;418.60;;;75.93;;
55140;SDS011;41035;44.280;19.870;2022-12-07T02:39:55;500.40;;;74.55;;
55140;SDS011;41035;44.280;19.870;2022-12-07T02:42:47;422.30;;;102.85;;
55140;SDS011;41035;44.280;19.870;2022-12-07T02:45:20;543.15;;;77.88;;
55140;SDS011;41035;44.280;19.870;2022-12-07T02:47:47;325.13;;;84.75;;
55140;SDS011;41035;44.280;19.870;2022-12-07T02:50:19;436.25;;;97.25;;
55140;SDS011;41035;44.280;19.870;2022-12-07T02:52:46;354.98;;;73.78;;
55140;SDS011;41035;44.280;19.870;2022-12-07T02:55:12;536.08;;;83.82;;
55140;SDS011;41035;44.280;19.870;2022-12-07T02:57:57;504.48;;;82.85;;
55140;SDS011;41035;44.280;19.870;2022-12-07T03:00:25;541.95;;;84.13;;
55140;SDS011;41035;44.280;19.870;2022-12-07T03:08:15;440.02;;;78.90;;
55140;SDS011;41035;44.280;19.870;2022-12-07T03:18:52;830.90;;;93.45;;
55140;SDS011;41035;44.280;19.870;2022-12-07T03:21:21;480.73;;;85.65;;
55140;SDS011;41035;44.280;19.870;2022-12-07T03:23:50;564.17;;;83.57;;
55140;SDS011;41035;44.280;19.870;2022-12-07T03:26:17;457.70;;;79.75;;
55140;SDS011;41035;44.280;19.870;2022-12-07T03:28:46;683.17;;;92.72;;
55140;SDS011;41035;44.280;19.870;2022-12-07T03:31:16;693.83;;;88.82;;
55140;SDS011;41035;44.280;19.870;2022-12-07T03:36:55;854.88;;;96.32;;
55140;SDS011;41035;44.280;19.870;2022-12-07T03:39:37;274.52;;;73.13;;
55140;SDS011;41035;44.280;19.870;2022-12-07T03:42:05;641.03;;;86.47;;
55140;SDS011;41035;44.280;19.870;2022-12-07T03:44:33;262.83;;;72.82;;
55140;SDS011;41035;44.280;19.870;2022-12-07T03:47:05;690.28;;;87.95;;
55140;SDS011;41035;44.280;19.870;2022-12-07T03:49:35;655.55;;;89.78;;
55140;SDS011;41035;44.280;19.870;2022-12-07T04:00:11;545.38;;;80.93;;
55140;SDS011;41035;44.280;19.870;2022-12-07T04:02:37;386.08;;;73.45;;
55140;SDS011;41035;44.280;19.870;2022-12-07T04:05:03;362.73;;;71.82;;
55140;SDS011;41035;44.280;19.870;2022-12-07T04:07:30;383.58;;;77.63;;
55140;SDS011;41035;44.280;19.870;2022-12-07T04:09:56;705.22;;;116.57;;
55140;SDS011;41035;44.280;19.870;2022-12-07T04:12:22;602.75;;;87.43;;
55140;SDS011;41035;44.280;19.870;2022-12-07T04:14:48;663.10;;;92.45;;
55140;SDS011;41035;44.280;19.870;2022-12-07T04:17:15;725.97;;;89.32;;
55140;SDS011;41035;44.280;19.870;2022-12-07T04:19:41;534.10;;;85.75;;
55140;SDS011;41035;44.280;19.870;2022-12-07T04:30:39;874.03;;;100.32;;
55140;SDS011;41035;44.280;19.870;2022-12-07T04:42:50;574.78;;;102.95;;
55140;SDS011;41035;44.280;19.870;2022-12-07T04:45:16;452.50;;;105.18;;
55140;SDS011;41035;44.280;19.870;2022-12-07T04:47:42;523.45;;;94.45;;
55140;SDS011;41035;44.280;19.870;2022-12-07T04:50:09;440.02;;;98.40;;
55140;SDS011;41035;44.280;19.870;2022-12-07T04:52:40;526.92;;;81.70;;
55140;SDS011;41035;44.280;19.870;2022-12-07T04:55:06;360.02;;;91.82;;
55140;SDS011;41035;44.280;19.870;2022-12-07T04:57:32;550.25;;;97.57;;
55140;SDS011;41035;44.280;19.870;2022-12-07T04:59:59;406.92;;;93.28;;
55140;SDS011;41035;44.280;19.870;2022-12-07T05:02:25;328.02;;;70.93;;
55140;SDS011;41035;44.280;19.870;2022-12-07T05:04:51;486.50;;;90.45;;
55140;SDS011;41035;44.280;19.870;2022-12-07T05:07:17;382.45;;;84.72;;
55140;SDS011;41035;44.280;19.870;2022-12-07T05:09:43;296.13;;;67.57;;
55140;SDS011;41035;44.280;19.870;2022-12-07T05:12:09;431.88;;;83.07;;
55140;SDS011;41035;44.280;19.870;2022-12-07T05:17:17;434.27;;;80.95;;
55140;SDS011;41035;44.280;19.870;2022-12-07T05:19:44;664.10;;;91.60;;
55140;SDS011;41035;44.280;19.870;2022-12-07T05:22:11;229.75;;;70.15;;
55140;SDS011;41035;44.280;19.870;2022-12-07T05:24:41;524.78;;;84.15;;
55140;SDS011;41035;44.280;19.870;2022-12-07T05:27:07;585.85;;;78.30;;
55140;SDS011;41035;44.280;19.870;2022-12-07T05:29:33;198.82;;;59.55;;
55140;SDS011;41035;44.280;19.870;2022-12-07T05:32:00;483.58;;;70.72;;
55140;SDS011;41035;44.280;19.870;2022-12-07T05:34:26;562.00;;;86.47;;
55140;SDS011;41035;44.280;19.870;2022-12-07T05:36:52;375.48;;;71.18;;
55140;SDS011;41035;44.280;19.870;2022-12-07T05:39:18;358.85;;;64.15;;
55140;SDS011;41035;44.280;19.870;2022-12-07T05:41:44;489.67;;;90.97;;
55140;SDS011;41035;44.280;19.870;2022-12-07T05:44:29;424.35;;;89.90;;
55140;SDS011;41035;44.280;19.870;2022-12-07T05:46:55;261.73;;;80.90;;
55140;SDS011;41035;44.280;19.870;2022-12-07T05:49:21;279.23;;;75.30;;
55140;SDS011;41035;44.280;19.870;2022-12-07T05:51:47;443.80;;;78.70;;
55140;SDS011;41035;44.280;19.870;2022-12-07T05:54:13;486.48;;;90.28;;
55140;SDS011;41035;44.280;19.870;2022-12-07T05:56:39;515.15;;;95.72;;
55140;SDS011;41035;44.280;19.870;2022-12-07T05:59:05;453.02;;;93.47;;
55140;SDS011;41035;44.280;19.870;2022-12-07T06:01:53;509.20;;;76.85;;
55140;SDS011;41035;44.280;19.870;2022-12-07T06:04:20;236.98;;;66.45;;
55140;SDS011;41035;44.280;19.870;2022-12-07T06:06:46;255.65;;;60.75;;
55140;SDS011;41035;44.280;19.870;2022-12-07T06:09:13;342.00;;;61.88;;
55140;SDS011;41035;44.280;19.870;2022-12-07T06:11:39;228.95;;;66.35;;
55140;SDS011;41035;44.280;19.870;2022-12-07T06:14:24;421.63;;;89.20;;
55140;SDS011;41035;44.280;19.870;2022-12-07T06:16:50;475.70;;;86.70;;
55140;SDS011;41035;44.280;19.870;2022-12-07T06:19:17;441.38;;;74.72;;
55140;SDS011;41035;44.280;19.870;2022-12-07T06:21:43;321.67;;;71.85;;
55140;SDS011;41035;44.280;19.870;2022-12-07T06:24:10;236.02;;;69.50;;
55140;SDS011;41035;44.280;19.870;2022-12-07T06:26:40;238.48;;;64.70;;
55140;SDS011;41035;44.280;19.870;2022-12-07T06:29:06;205.60;;;74.13;;
55140;SDS011;41035;44.280;19.870;2022-12-07T06:31:35;258.98;;;74.53;;
55140;SDS011;41035;44.280;19.870;2022-12-07T06:36:27;144.48;;;57.92;;
55140;SDS011;41035;44.280;19.870;2022-12-07T06:38:54;222.90;;;69.32;;
55140;SDS011;41035;44.280;19.870;2022-12-07T06:41:21;314.10;;;114.95;;
55140;SDS011;41035;44.280;19.870;2022-12-07T06:43:47;628.60;;;261.92;;
55140;SDS011;41035;44.280;19.870;2022-12-07T06:46:13;227.00;;;86.35;;
55140;SDS011;41035;44.280;19.870;2022-12-07T07:00:21;189.30;;;73.20;;
55140;SDS011;41035;44.280;19.870;2022-12-07T07:02:47;140.05;;;58.95;;
55140;SDS011;41035;44.280;19.870;2022-12-07T07:05:13;128.35;;;50.78;;
55140;SDS011;41035;44.280;19.870;2022-12-07T07:07:43;122.60;;;49.75;;
55140;SDS011;41035;44.280;19.870;2022-12-07T07:21:08;635.17;;;301.48;;
55140;SDS011;41035;44.280;19.870;2022-12-07T07:23:35;310.90;;;136.45;;
55140;SDS011;41035;44.280;19.870;2022-12-07T07:26:01;147.43;;;65.18;;
55140;SDS011;41035;44.280;19.870;2022-12-07T07:28:27;184.70;;;77.10;;
55140;SDS011;41035;44.280;19.870;2022-12-07T07:30:54;134.88;;;59.25;;
55140;SDS011;41035;44.280;19.870;2022-12-07T07:42:32;165.98;;;71.85;;
55140;SDS011;41035;44.280;19.870;2022-12-07T07:48:13;153.27;;;66.82;;
55140;SDS011;41035;44.280;19.870;2022-12-07T07:50:39;154.85;;;66.97;;
55140;SDS011;41035;44.280;19.870;2022-12-07T07:53:18;148.82;;;57.50;;
55140;SDS011;41035;44.280;19.870;2022-12-07T07:55:53;114.07;;;45.33;;
55140;SDS011;41035;44.280;19.870;2022-12-07T07:58:34;111.47;;;45.33;;
55140;SDS011;41035;44.280;19.870;2022-12-07T08:01:19;125.43;;;49.10;;
55140;SDS011;41035;44.280;19.870;2022-12-07T08:03:57;118.38;;;49.08;;
55140;SDS011;41035;44.280;19.870;2022-12-07T08:06:38;122.60;;;52.65;;
55140;SDS011;41035;44.280;19.870;2022-12-07T08:09:17;100.90;;;43.97;;
55140;SDS011;41035;44.280;19.870;2022-12-07T08:11:52;110.17;;;47.90;;
55140;SDS011;41035;44.280;19.870;2022-12-07T08:14:18;99.75;;;43.45;;
55140;SDS011;41035;44.280;19.870;2022-12-07T08:16:48;109.90;;;52.00;;
55140;SDS011;41035;44.280;19.870;2022-12-07T08:19:16;129.05;;;68.03;;
55140;SDS011;41035;44.280;19.870;2022-12-07T08:22:12;101.47;;;46.15;;
55140;SDS011;41035;44.280;19.870;2022-12-07T08:27:15;123.10;;;67.40;;
55140;SDS011;41035;44.280;19.870;2022-12-07T08:29:47;254.50;;;123.63;;
55140;SDS011;41035;44.280;19.870;2022-12-07T08:32:23;125.40;;;57.08;;
55140;SDS011;41035;44.280;19.870;2022-12-07T08:34:49;177.30;;;79.68;;
55140;SDS011;41035;44.280;19.870;2022-12-07T08:37:39;133.68;;;66.32;;
55140;SDS011;41035;44.280;19.870;2022-12-07T08:40:16;121.15;;;58.17;;
55140;SDS011;41035;44.280;19.870;2022-12-07T09:08:33;70.90;;;35.65;;
55140;SDS011;41035;44.280;19.870;2022-12-07T09:11:00;88.38;;;45.78;;
55140;SDS011;41035;44.280;19.870;2022-12-07T09:13:32;73.05;;;38.63;;
55140;SDS011;41035;44.280;19.870;2022-12-07T09:15:58;111.20;;;60.78;;
55140;SDS011;41035;44.280;19.870;2022-12-07T09:18:30;113.85;;;60.95;;
55140;SDS011;41035;44.280;19.870;2022-12-07T09:21:06;105.07;;;50.72;;
55140;SDS011;41035;44.280;19.870;2022-12-07T09:23:42;84.88;;;39.55;;
55140;SDS011;41035;44.280;19.870;2022-12-07T09:29:21;87.78;;;39.70;;
55140;SDS011;41035;44.280;19.870;2022-12-07T09:32:07;106.28;;;47.28;;
55140;SDS011;41035;44.280;19.870;2022-12-07T09:37:56;104.68;;;45.30;;
55140;SDS011;41035;44.280;19.870;2022-12-07T09:40:27;76.07;;;35.42;;
55140;SDS011;41035;44.280;19.870;2022-12-07T09:43:00;111.90;;;46.33;;
55140;SDS011;41035;44.280;19.870;2022-12-07T09:51:13;45.55;;;24.63;;
55140;SDS011;41035;44.280;19.870;2022-12-07T09:53:52;55.13;;;27.38;;
55140;SDS011;41035;44.280;19.870;2022-12-07T09:56:37;45.65;;;26.70;;
55140;SDS011;41035;44.280;19.870;2022-12-07T09:59:09;43.35;;;24.35;;
55140;SDS011;41035;44.280;19.870;2022-12-07T10:23:23;121.60;;;62.00;;
55140;SDS011;41035;44.280;19.870;2022-12-07T10:32:36;99.57;;;49.85;;
55140;SDS011;41035;44.280;19.870;2022-12-07T10:35:23;132.05;;;74.72;;
55140;SDS011;41035;44.280;19.870;2022-12-07T10:37:53;118.95;;;63.85;;
55140;SDS011;41035;44.280;19.870;2022-12-07T10:45:39;72.18;;;36.47;;
55140;SDS011;41035;44.280;19.870;2022-12-07T10:48:16;67.45;;;30.25;;
55140;SDS011;41035;44.280;19.870;2022-12-07T10:56:26;49.10;;;24.98;;
55140;SDS011;41035;44.280;19.870;2022-12-07T11:04:47;77.10;;;41.22;;
55140;SDS011;41035;44.280;19.870;2022-12-07T11:21:29;61.88;;;37.88;;
55140;SDS011;41035;44.280;19.870;2022-12-07T11:23:59;42.75;;;25.05;;
55140;SDS011;41035;44.280;19.870;2022-12-07T11:26:42;44.03;;;23.52;;
55140;SDS011;41035;44.280;19.870;2022-12-07T11:37:59;39.50;;;20.27;;
55140;SDS011;41035;44.280;19.870;2022-12-07T11:40:28;25.35;;;16.30;;
55140;SDS011;41035;44.280;19.870;2022-12-07T11:43:09;45.13;;;26.02;;
55140;SDS011;41035;44.280;19.870;2022-12-07T11:45:41;59.83;;;35.78;;
55140;SDS011;41035;44.280;19.870;2022-12-07T11:48:25;47.63;;;29.88;;
55140;SDS011;41035;44.280;19.870;2022-12-07T11:50:56;40.35;;;24.92;;
55140;SDS011;41035;44.280;19.870;2022-12-07T11:53:26;54.08;;;29.23;;
55140;SDS011;41035;44.280;19.870;2022-12-07T11:55:54;49.72;;;27.90;;
55140;SDS011;41035;44.280;19.870;2022-12-07T12:00:55;31.33;;;17.92;;
55140;SDS011;41035;44.280;19.870;2022-12-07T12:03:28;36.70;;;21.85;;
55140;SDS011;41035;44.280;19.870;2022-12-07T12:06:17;65.38;;;36.58;;
55140;SDS011;41035;44.280;19.870;2022-12-07T12:08:48;75.55;;;41.05;;
55140;SDS011;41035;44.280;19.870;2022-12-07T12:11:38;98.47;;;51.72;;
55140;SDS011;41035;44.280;19.870;2022-12-07T12:14:29;50.50;;;26.65;;
55140;SDS011;41035;44.280;19.870;2022-12-07T12:25:20;141.70;;;75.20;;
55140;SDS011;41035;44.280;19.870;2022-12-07T12:27:47;99.07;;;50.67;;
55140;SDS011;41035;44.280;19.870;2022-12-07T12:30:36;117.50;;;61.15;;
55140;SDS011;41035;44.280;19.870;2022-12-07T12:33:04;90.38;;;49.10;;
55140;SDS011;41035;44.280;19.870;2022-12-07T12:36:16;167.60;;;76.85;;
55140;SDS011;41035;44.280;19.870;2022-12-07T12:51:36;144.05;;;66.60;;
55140;SDS011;41035;44.280;19.870;2022-12-07T12:54:04;107.35;;;55.80;;
55140;SDS011;41035;44.280;19.870;2022-12-07T12:59:38;358.20;;;219.02;;
55140;SDS011;41035;44.280;19.870;2022-12-07T13:07:47;83.63;;;44.13;;
55140;SDS011;41035;44.280;19.870;2022-12-07T13:10:00;63.97;;;35.50;;
55140;SDS011;41035;44.280;19.870;2022-12-07T13:12:27;98.72;;;50.15;;
55140;SDS011;41035;44.280;19.870;2022-12-07T13:14:57;370.10;;;159.75;;
55140;SDS011;41035;44.280;19.870;2022-12-07T13:20:03;377.10;;;136.30;;
55140;SDS011;41035;44.280;19.870;2022-12-07T13:24:59;235.40;;;95.03;;
55140;SDS011;41035;44.280;19.870;2022-12-07T13:27:29;180.38;;;82.53;;
55140;SDS011;41035;44.280;19.870;2022-12-07T13:29:56;106.43;;;59.83;;
55140;SDS011;41035;44.280;19.870;2022-12-07T13:32:27;82.90;;;43.58;;
55140;SDS011;41035;44.280;19.870;2022-12-07T13:34:54;70.78;;;37.63;;
55140;SDS011;41035;44.280;19.870;2022-12-07T13:39:48;57.85;;;33.30;;
55140;SDS011;41035;44.280;19.870;2022-12-07T13:42:28;61.45;;;34.80;;
55140;SDS011;41035;44.280;19.870;2022-12-07T13:44:55;47.30;;;27.92;;
55140;SDS011;41035;44.280;19.870;2022-12-07T13:47:32;37.35;;;22.75;;
55140;SDS011;41035;44.280;19.870;2022-12-07T13:50:00;63.78;;;37.35;;
55140;SDS011;41035;44.280;19.870;2022-12-07T13:52:30;144.05;;;87.72;;
55140;SDS011;41035;44.280;19.870;2022-12-07T13:57:22;44.53;;;27.50;;
55140;SDS011;41035;44.280;19.870;2022-12-07T13:59:50;215.63;;;116.32;;
55140;SDS011;41035;44.280;19.870;2022-12-07T14:02:25;141.00;;;80.47;;
55140;SDS011;41035;44.280;19.870;2022-12-07T14:04:51;58.97;;;35.13;;
55140;SDS011;41035;44.280;19.870;2022-12-07T14:07:25;108.20;;;59.35;;
55140;SDS011;41035;44.280;19.870;2022-12-07T14:12:21;102.63;;;54.33;;
55140;SDS011;41035;44.280;19.870;2022-12-07T14:14:47;112.10;;;57.58;;
55140;SDS011;41035;44.280;19.870;2022-12-07T14:17:18;142.88;;;78.43;;
55140;SDS011;41035;44.280;19.870;2022-12-07T14:22:23;160.55;;;90.63;;
55140;SDS011;41035;44.280;19.870;2022-12-07T14:24:50;149.32;;;86.72;;
55140;SDS011;41035;44.280;19.870;2022-12-07T14:27:20;156.13;;;89.82;;
55140;SDS011;41035;44.280;19.870;2022-12-07T14:29:49;126.82;;;74.05;;
55140;SDS011;41035;44.280;19.870;2022-12-07T14:32:28;110.55;;;59.80;;
55140;SDS011;41035;44.280;19.870;2022-12-07T14:37:23;95.47;;;53.50;;
55140;SDS011;41035;44.280;19.870;2022-12-07T14:39:53;129.38;;;70.53;;
55140;SDS011;41035;44.280;19.870;2022-12-07T14:42:23;161.13;;;90.30;;
55140;SDS011;41035;44.280;19.870;2022-12-07T14:44:50;84.65;;;50.13;;
55140;SDS011;41035;44.280;19.870;2022-12-07T14:47:16;230.13;;;112.75;;
55140;SDS011;41035;44.280;19.870;2022-12-07T14:49:57;142.35;;;76.93;;
55140;SDS011;41035;44.280;19.870;2022-12-07T14:52:26;216.65;;;118.30;;
55140;SDS011;41035;44.280;19.870;2022-12-07T14:55:02;196.77;;;102.80;;
55140;SDS011;41035;44.280;19.870;2022-12-07T14:57:46;84.18;;;47.45;;
55140;SDS011;41035;44.280;19.870;2022-12-07T15:00:23;110.95;;;62.50;;
55140;SDS011;41035;44.280;19.870;2022-12-07T15:03:19;97.45;;;58.53;;
55140;SDS011;41035;44.280;19.870;2022-12-07T15:09:02;89.28;;;55.33;;
55140;SDS011;41035;44.280;19.870;2022-12-07T15:14:06;127.40;;;71.60;;
55140;SDS011;41035;44.280;19.870;2022-12-07T15:16:37;163.00;;;96.32;;
55140;SDS011;41035;44.280;19.870;2022-12-07T15:19:18;118.90;;;65.03;;
55140;SDS011;41035;44.280;19.870;2022-12-07T15:21:53;101.75;;;60.83;;
55140;SDS011;41035;44.280;19.870;2022-12-07T15:24:20;111.03;;;63.38;;
55140;SDS011;41035;44.280;19.870;2022-12-07T15:26:48;135.85;;;82.13;;
55140;SDS011;41035;44.280;19.870;2022-12-07T15:29:29;203.27;;;114.65;;
55140;SDS011;41035;44.280;19.870;2022-12-07T15:31:56;257.13;;;147.35;;
55140;SDS011;41035;44.280;19.870;2022-12-07T15:34:23;241.13;;;122.75;;
55140;SDS011;41035;44.280;19.870;2022-12-07T15:36:56;187.75;;;109.95;;
55140;SDS011;41035;44.280;19.870;2022-12-07T15:39:25;185.18;;;104.38;;
55140;SDS011;41035;44.280;19.870;2022-12-07T15:41:54;217.43;;;116.80;;
55140;SDS011;41035;44.280;19.870;2022-12-07T16:04:47;248.63;;;143.88;;
55140;SDS011;41035;44.280;19.870;2022-12-07T16:07:48;146.73;;;84.20;;
55140;SDS011;41035;44.280;19.870;2022-12-07T16:10:17;131.27;;;76.13;;
55140;SDS011;41035;44.280;19.870;2022-12-07T16:12:46;96.78;;;58.10;;
55140;SDS011;41035;44.280;19.870;2022-12-07T16:15:12;104.38;;;62.75;;
55140;SDS011;41035;44.280;19.870;2022-12-07T16:17:38;199.00;;;124.07;;
55140;SDS011;41035;44.280;19.870;2022-12-07T16:20:05;152.57;;;87.97;;
55140;SDS011;41035;44.280;19.870;2022-12-07T16:22:33;130.38;;;80.47;;
55140;SDS011;41035;44.280;19.870;2022-12-07T16:24:59;68.45;;;39.20;;
55140;SDS011;41035;44.280;19.870;2022-12-07T16:27:25;34.28;;;22.30;;
55140;SDS011;41035;44.280;19.870;2022-12-07T16:29:51;40.65;;;26.63;;
55140;SDS011;41035;44.280;19.870;2022-12-07T16:32:23;47.88;;;28.23;;
55140;SDS011;41035;44.280;19.870;2022-12-07T16:34:49;31.73;;;19.10;;
55140;SDS011;41035;44.280;19.870;2022-12-07T16:37:30;59.80;;;33.92;;
55140;SDS011;41035;44.280;19.870;2022-12-07T16:39:56;47.25;;;27.00;;
55140;SDS011;41035;44.280;19.870;2022-12-07T16:42:22;53.13;;;30.85;;
55140;SDS011;41035;44.280;19.870;2022-12-07T16:44:48;36.80;;;21.60;;
55140;SDS011;41035;44.280;19.870;2022-12-07T16:47:21;77.68;;;41.83;;
55140;SDS011;41035;44.280;19.870;2022-12-07T16:49:53;59.42;;;32.75;;
55140;SDS011;41035;44.280;19.870;2022-12-07T16:52:19;108.80;;;56.28;;
55140;SDS011;41035;44.280;19.870;2022-12-07T16:54:55;90.72;;;40.55;;
55140;SDS011;41035;44.280;19.870;2022-12-07T16:57:24;78.68;;;40.45;;
55140;SDS011;41035;44.280;19.870;2022-12-07T16:59:53;70.25;;;35.42;;
55140;SDS011;41035;44.280;19.870;2022-12-07T17:02:19;80.95;;;38.40;;
55140;SDS011;41035;44.280;19.870;2022-12-07T17:04:46;123.20;;;54.22;;
55140;SDS011;41035;44.280;19.870;2022-12-07T17:07:12;352.30;;;126.13;;
55140;SDS011;41035;44.280;19.870;2022-12-07T17:09:59;190.35;;;85.47;;
55140;SDS011;41035;44.280;19.870;2022-12-07T17:12:31;331.13;;;126.35;;
55140;SDS011;41035;44.280;19.870;2022-12-07T17:15:01;206.10;;;98.50;;
55140;SDS011;41035;44.280;19.870;2022-12-07T17:18:06;196.50;;;91.32;;
55140;SDS011;41035;44.280;19.870;2022-12-07T17:20:32;143.43;;;73.80;;
55140;SDS011;41035;44.280;19.870;2022-12-07T17:23:07;149.00;;;72.15;;
55140;SDS011;41035;44.280;19.870;2022-12-07T17:25:33;324.92;;;135.77;;
55140;SDS011;41035;44.280;19.870;2022-12-07T17:28:08;98.47;;;53.95;;
55140;SDS011;41035;44.280;19.870;2022-12-07T17:30:34;105.60;;;59.42;;
55140;SDS011;41035;44.280;19.870;2022-12-07T17:33:00;165.30;;;73.57;;
55140;SDS011;41035;44.280;19.870;2022-12-07T17:35:26;151.02;;;70.32;;
55140;SDS011;41035;44.280;19.870;2022-12-07T17:37:52;231.98;;;108.40;;
55140;SDS011;41035;44.280;19.870;2022-12-07T17:40:20;196.88;;;100.97;;
55140;SDS011;41035;44.280;19.870;2022-12-07T17:42:46;152.02;;;84.15;;
55140;SDS011;41035;44.280;19.870;2022-12-07T17:47:41;111.88;;;60.85;;
55140;SDS011;41035;44.280;19.870;2022-12-07T17:50:07;106.43;;;56.65;;
55140;SDS011;41035;44.280;19.870;2022-12-07T17:52:36;201.27;;;108.30;;
55140;SDS011;41035;44.280;19.870;2022-12-07T17:55:21;241.50;;;125.40;;
55140;SDS011;41035;44.280;19.870;2022-12-07T17:57:47;188.52;;;100.68;;
55140;SDS011;41035;44.280;19.870;2022-12-07T18:00:13;157.10;;;84.78;;
55140;SDS011;41035;44.280;19.870;2022-12-07T18:02:40;193.85;;;103.05;;
55140;SDS011;41035;44.280;19.870;2022-12-07T18:05:18;157.82;;;85.20;;
55140;SDS011;41035;44.280;19.870;2022-12-07T18:08:00;162.27;;;88.00;;
55140;SDS011;41035;44.280;19.870;2022-12-07T18:10:26;168.25;;;95.00;;
55140;SDS011;41035;44.280;19.870;2022-12-07T18:12:55;126.25;;;71.05;;
55140;SDS011;41035;44.280;19.870;2022-12-07T18:15:44;185.85;;;99.05;;
55140;SDS011;41035;44.280;19.870;2022-12-07T18:18:22;154.88;;;83.70;;
55140;SDS011;41035;44.280;19.870;2022-12-07T18:20:48;96.03;;;52.75;;
55140;SDS011;41035;44.280;19.870;2022-12-07T18:23:14;91.28;;;51.97;;
55140;SDS011;41035;44.280;19.870;2022-12-07T18:25:45;93.50;;;52.42;;
55140;SDS011;41035;44.280;19.870;2022-12-07T18:28:11;192.23;;;94.88;;
55140;SDS011;41035;44.280;19.870;2022-12-07T18:30:38;127.97;;;67.53;;
55140;SDS011;41035;44.280;19.870;2022-12-07T18:33:05;184.50;;;102.40;;
55140;SDS011;41035;44.280;19.870;2022-12-07T18:35:31;133.13;;;75.57;;
55140;SDS011;41035;44.280;19.870;2022-12-07T18:37:58;128.80;;;75.53;;
55140;SDS011;41035;44.280;19.870;2022-12-07T18:40:26;160.15;;;89.70;;
55140;SDS011;41035;44.280;19.870;2022-12-07T18:42:52;203.63;;;113.70;;
55140;SDS011;41035;44.280;19.870;2022-12-07T18:45:18;109.43;;;62.58;;
55140;SDS011;41035;44.280;19.870;2022-12-07T18:47:44;114.97;;;70.03;;
55140;SDS011;41035;44.280;19.870;2022-12-07T18:50:10;137.93;;;80.57;;
55140;SDS011;41035;44.280;19.870;2022-12-07T18:52:36;98.57;;;56.45;;
55140;SDS011;41035;44.280;19.870;2022-12-07T18:55:02;118.93;;;66.55;;
55140;SDS011;41035;44.280;19.870;2022-12-07T18:57:35;221.93;;;124.70;;
55140;SDS011;41035;44.280;19.870;2022-12-07T19:00:01;147.60;;;83.55;;
55140;SDS011;41035;44.280;19.870;2022-12-07T19:02:27;147.68;;;82.07;;
55140;SDS011;41035;44.280;19.870;2022-12-07T19:04:53;156.50;;;88.28;;
55140;SDS011;41035;44.280;19.870;2022-12-07T19:07:19;125.88;;;73.70;;
55140;SDS011;41035;44.280;19.870;2022-12-07T19:09:45;167.27;;;92.68;;
55140;SDS011;41035;44.280;19.870;2022-12-07T19:12:13;164.70;;;96.53;;
55140;SDS011;41035;44.280;19.870;2022-12-07T19:14:39;162.45;;;94.05;;
55140;SDS011;41035;44.280;19.870;2022-12-07T19:17:06;191.23;;;104.38;;
55140;SDS011;41035;44.280;19.870;2022-12-07T19:19:37;121.80;;;70.28;;
55140;SDS011;41035;44.280;19.870;2022-12-07T19:22:04;132.00;;;75.05;;
55140;SDS011;41035;44.280;19.870;2022-12-07T19:24:30;106.72;;;62.58;;
55140;SDS011;41035;44.280;19.870;2022-12-07T19:26:57;93.95;;;59.83;;